createdAt,value
2023-04-09T00:02:22.026Z,32.22
2023-04-09T00:05:08.029Z,36.90
2023-04-09T00:07:54.097Z,31.15
2023-04-09T00:10:40.121Z,53.72
2023-04-09T00:13:37.951Z,47.97
2023-04-09T00:16:25.038Z,52.97
2023-04-09T00:19:11.683Z,46.60
2023-04-09T00:21:57.155Z,47.90
2023-04-09T00:24:42.554Z,50.72
2023-04-09T00:27:27.763Z,46.17
2023-04-09T00:30:13.182Z,45.95
2023-04-09T00:32:58.729Z,47.10
2023-04-09T00:35:44.214Z,37.75
2023-04-09T00:38:29.760Z,40.67
2023-04-09T00:41:15.299Z,45.47
2023-04-09T00:44:00.704Z,49.13
2023-04-09T00:46:46.076Z,56.78
2023-04-09T00:49:31.553Z,48.10
2023-04-09T00:52:17.208Z,55.47
2023-04-09T00:55:05.296Z,39.00
2023-04-09T00:57:50.831Z,24.05
2023-04-09T01:00:36.382Z,30.40
2023-04-09T01:03:21.894Z,39.17
2023-04-09T01:06:32.826Z,60.50
2023-04-09T01:09:39.094Z,37.08
2023-04-09T01:12:34.045Z,33.83
2023-04-09T01:15:25.530Z,42.13
2023-04-09T01:18:19.421Z,50.33
2023-04-09T01:21:17.969Z,56.88
2023-04-09T01:24:23.424Z,54.63
2023-04-09T01:27:09.635Z,62.08
2023-04-09T01:30:18.095Z,50.58
2023-04-09T01:33:06.124Z,36.60
2023-04-09T01:35:54.004Z,53.25
2023-04-09T01:38:42.140Z,76.82
2023-04-09T01:41:28.160Z,64.72
2023-04-09T01:44:14.214Z,54.65
2023-04-09T01:47:00.693Z,38.92
2023-04-09T01:49:46.308Z,25.45
2023-04-09T01:52:31.821Z,36.63
2023-04-09T01:55:17.396Z,36.00
2023-04-09T01:58:02.724Z,37.47
2023-04-09T02:00:49.268Z,43.30
2023-04-09T02:03:39.766Z,25.63
2023-04-09T02:06:40.081Z,24.50
2023-04-09T02:09:29.603Z,30.90
2023-04-09T02:12:19.168Z,37.33
2023-04-09T02:15:07.332Z,23.27
2023-04-09T02:17:53.554Z,28.70
2023-04-09T02:20:38.830Z,27.55
2023-04-09T02:23:24.960Z,31.77
2023-04-09T02:26:10.627Z,25.38
2023-04-09T02:28:55.937Z,33.22
2023-04-09T02:31:41.199Z,25.48
2023-04-09T02:34:26.921Z,28.88
2023-04-09T02:37:12.529Z,25.77
2023-04-09T02:39:57.996Z,26.95
2023-04-09T02:42:43.384Z,29.85
2023-04-09T02:45:29.224Z,37.85
2023-04-09T02:48:14.636Z,28.92
2023-04-09T02:51:04.528Z,30.48
2023-04-09T02:53:49.876Z,30.95
2023-04-09T02:56:35.573Z,33.35
2023-04-09T02:59:20.881Z,36.83
2023-04-09T03:02:06.453Z,36.92
2023-04-09T03:04:53.108Z,26.30
2023-04-09T03:07:38.660Z,26.65
2023-04-09T03:10:24.063Z,33.70
2023-04-09T03:13:09.698Z,28.83
2023-04-09T03:15:55.038Z,31.02
2023-04-09T03:18:40.704Z,34.15
2023-04-09T03:21:27.003Z,34.22
2023-04-09T03:24:12.683Z,51.00
2023-04-09T03:26:59.394Z,39.20
2023-04-09T03:29:45.228Z,47.38
2023-04-09T03:32:32.112Z,39.72
2023-04-09T03:35:17.546Z,35.55
2023-04-09T03:38:04.321Z,34.65
2023-04-09T03:40:50.832Z,39.70
2023-04-09T03:43:36.390Z,38.08
2023-04-09T03:46:22.898Z,38.33
2023-04-09T03:49:08.472Z,55.95
2023-04-09T03:52:00.800Z,43.80
2023-04-09T03:54:54.108Z,48.28
2023-04-09T03:57:42.759Z,47.90
2023-04-09T04:00:32.622Z,48.80
2023-04-09T04:03:47.986Z,40.25
2023-04-09T04:06:40.833Z,51.03
2023-04-09T04:09:45.319Z,54.88
2023-04-09T04:12:35.407Z,52.88
2023-04-09T04:15:28.837Z,51.47
2023-04-09T04:18:15.562Z,50.58
2023-04-09T04:21:15.716Z,56.28
2023-04-09T04:24:06.066Z,43.97
2023-04-09T04:26:51.478Z,45.80
2023-04-09T04:29:38.948Z,56.15
2023-04-09T04:32:37.503Z,45.05
2023-04-09T04:35:27.419Z,46.78
2023-04-09T04:38:16.669Z,46.55
2023-04-09T04:41:02.984Z,42.45
2023-04-09T04:43:49.969Z,46.40
2023-04-09T04:46:40.591Z,44.58
2023-04-09T04:49:26.226Z,55.38
2023-04-09T04:52:11.883Z,47.35
2023-04-09T04:55:01.499Z,47.10
2023-04-09T04:57:47.367Z,33.70
2023-04-09T05:00:32.837Z,47.72
2023-04-09T05:03:21.573Z,39.50
2023-04-09T05:06:32.326Z,44.80
2023-04-09T05:09:22.358Z,47.55
2023-04-09T05:12:24.706Z,47.75
2023-04-09T05:15:11.702Z,51.38
2023-04-09T05:17:58.104Z,48.72
2023-04-09T05:20:43.914Z,61.88
2023-04-09T05:23:29.349Z,38.63
2023-04-09T05:26:14.760Z,40.35
2023-04-09T05:29:08.793Z,38.90
2023-04-09T05:31:55.912Z,40.53
2023-04-09T05:34:50.306Z,31.73
2023-04-09T05:37:35.913Z,31.75
2023-04-09T05:40:21.860Z,45.67
2023-04-09T05:43:08.987Z,27.33
2023-04-09T05:45:58.983Z,32.80
2023-04-09T05:48:44.892Z,38.03
2023-04-09T05:51:30.890Z,30.58
2023-04-09T05:54:20.033Z,36.75
2023-04-09T05:57:05.937Z,27.55
2023-04-09T05:59:54.851Z,24.45
2023-04-09T06:02:41.283Z,28.50
2023-04-09T06:05:26.669Z,30.75
2023-04-09T06:08:13.009Z,17.58
2023-04-09T06:10:59.178Z,22.33
2023-04-09T06:13:44.807Z,27.30
2023-04-09T06:16:30.596Z,22.58
2023-04-09T06:19:21.122Z,22.38
2023-04-09T06:22:11.176Z,22.80
2023-04-09T06:24:56.890Z,23.63
2023-04-09T06:27:42.705Z,29.52
2023-04-09T06:30:28.075Z,24.88
2023-04-09T06:33:14.441Z,22.73
2023-04-09T06:35:59.955Z,23.65
2023-04-09T06:38:45.886Z,21.95
2023-04-09T06:41:32.387Z,30.85
2023-04-09T06:44:17.929Z,19.65
2023-04-09T06:47:03.470Z,23.33
2023-04-09T06:49:49.031Z,20.30
2023-04-09T06:52:34.286Z,23.33
2023-04-09T06:55:19.872Z,22.67
2023-04-09T06:58:05.774Z,25.05
2023-04-09T07:00:51.521Z,27.45
2023-04-09T07:03:37.464Z,29.77
2023-04-09T07:06:23.292Z,24.40
2023-04-09T07:09:08.862Z,20.33
2023-04-09T07:11:54.143Z,28.88
2023-04-09T07:14:39.638Z,26.30
2023-04-09T07:17:25.166Z,27.42
2023-04-09T07:20:10.851Z,32.30
2023-04-09T07:22:56.521Z,29.48
2023-04-09T07:25:42.394Z,29.75
2023-04-09T07:28:27.853Z,26.70
2023-04-09T07:31:14.372Z,26.45
2023-04-09T07:33:59.711Z,30.08
2023-04-09T07:36:45.804Z,29.83
2023-04-09T07:39:31.661Z,27.55
2023-04-09T07:42:17.266Z,25.30
2023-04-09T07:45:03.460Z,23.90
2023-04-09T07:47:49.040Z,29.38
2023-04-09T07:51:06.591Z,25.25
2023-04-09T07:53:53.185Z,27.00
2023-04-09T07:56:38.926Z,27.20
2023-04-09T07:59:25.140Z,31.65
2023-04-09T08:02:14.333Z,26.52
2023-04-09T08:05:00.906Z,25.55
2023-04-09T08:07:46.551Z,27.92
2023-04-09T08:10:35.429Z,26.70
2023-04-09T08:13:24.665Z,50.08
2023-04-09T08:16:12.804Z,22.38
2023-04-09T08:18:58.486Z,25.58
2023-04-09T08:21:44.402Z,49.53
2023-04-09T08:27:48.773Z,24.60
2023-04-09T08:30:34.594Z,21.38
2023-04-09T08:33:19.991Z,21.60
2023-04-09T08:36:09.298Z,23.17
2023-04-09T08:38:56.649Z,20.63
2023-04-09T08:41:46.503Z,24.75
2023-04-09T08:44:32.059Z,18.45
2023-04-09T08:47:20.686Z,22.65
2023-04-09T08:50:06.674Z,16.25
2023-04-09T08:52:53.195Z,19.98
2023-04-09T08:55:38.764Z,14.38
2023-04-09T08:58:24.830Z,26.23
2023-04-09T09:01:19.862Z,9.82
2023-04-09T09:04:07.915Z,10.18
2023-04-09T09:06:55.551Z,12.68
2023-04-09T09:09:59.046Z,19.88
2023-04-09T09:15:31.028Z,13.98
2023-04-09T09:18:18.477Z,15.82
2023-04-09T09:21:17.864Z,28.75
2023-04-09T09:24:17.007Z,15.82
2023-04-09T09:27:03.116Z,14.52
2023-04-09T09:29:49.030Z,13.13
2023-04-09T09:32:35.305Z,14.00
2023-04-09T09:35:21.937Z,16.73
2023-04-09T09:38:07.694Z,10.52
2023-04-09T09:40:54.864Z,12.80
2023-04-09T09:43:42.990Z,12.10
2023-04-09T09:46:31.002Z,7.43
2023-04-09T09:49:16.601Z,10.25
2023-04-09T09:52:10.387Z,10.18
2023-04-09T09:55:03.244Z,7.45
2023-04-09T09:57:53.807Z,9.10
2023-04-09T10:00:41.026Z,9.15
2023-04-09T10:03:29.316Z,6.82
2023-04-09T10:06:15.766Z,9.77
2023-04-09T10:09:06.396Z,13.55
2023-04-09T10:11:53.057Z,46.47
2023-04-09T10:14:41.614Z,9.75
2023-04-09T10:17:28.689Z,10.80
2023-04-09T10:20:29.152Z,10.82
2023-04-09T10:23:25.116Z,23.02
2023-04-09T10:26:10.870Z,8.60
2023-04-09T10:29:13.919Z,35.85
2023-04-09T10:32:07.694Z,11.43
2023-04-09T10:34:59.468Z,9.13
2023-04-09T10:37:50.655Z,8.40
2023-04-09T10:40:56.562Z,8.65
2023-04-09T10:43:43.754Z,8.00
2023-04-09T10:51:35.896Z,10.48
2023-04-09T10:58:13.717Z,54.75
2023-04-09T11:01:13.573Z,9.52
2023-04-09T11:04:22.138Z,11.00
2023-04-09T11:07:09.093Z,15.93
2023-04-09T11:09:55.183Z,9.85
2023-04-09T11:12:43.794Z,16.80
2023-04-09T11:15:34.675Z,27.13
2023-04-09T11:18:27.998Z,10.77
2023-04-09T11:21:14.842Z,9.10
2023-04-09T11:24:01.047Z,11.95
2023-04-09T11:26:49.225Z,10.07
2023-04-09T11:29:36.266Z,12.57
2023-04-09T11:32:22.903Z,21.63
2023-04-09T11:35:15.761Z,9.60
2023-04-09T11:38:02.275Z,22.48
2023-04-09T11:40:49.223Z,11.95
2023-04-09T11:43:36.803Z,24.17
2023-04-09T11:46:26.201Z,12.88
2023-04-09T11:49:13.850Z,10.25
2023-04-09T11:52:01.858Z,11.30
2023-04-09T11:54:54.197Z,11.38
2023-04-09T11:57:46.283Z,8.80
2023-04-09T12:00:35.128Z,8.52
2023-04-09T12:03:33.727Z,8.43
2023-04-09T12:06:25.718Z,9.63
2023-04-09T12:09:14.337Z,9.65
2023-04-09T12:12:01.762Z,19.15
2023-04-09T12:14:48.006Z,11.05
2023-04-09T12:17:34.591Z,9.13
2023-04-09T12:20:39.685Z,8.90
2023-04-09T12:23:25.975Z,10.23
2023-04-09T12:26:13.211Z,15.85
2023-04-09T12:28:58.651Z,8.43
2023-04-09T12:31:46.352Z,8.90
2023-04-09T12:34:32.698Z,10.10
2023-04-09T12:37:19.064Z,8.23
2023-04-09T12:40:05.599Z,9.55
2023-04-09T12:42:51.793Z,8.27
2023-04-09T12:45:37.876Z,7.20
2023-04-09T12:48:24.422Z,9.20
2023-04-09T12:54:04.136Z,6.70
2023-04-09T12:56:50.314Z,7.35
2023-04-09T12:59:36.096Z,8.05
2023-04-09T13:02:21.954Z,8.77
2023-04-09T13:05:07.802Z,11.15
2023-04-09T13:07:53.702Z,8.43
2023-04-09T13:10:40.321Z,9.55
2023-04-09T13:13:26.927Z,9.35
2023-04-09T13:16:12.639Z,11.93
2023-04-09T13:18:58.087Z,10.80
2023-04-09T13:21:43.642Z,8.05
2023-04-09T13:24:29.266Z,7.65
2023-04-09T13:27:16.519Z,9.60
2023-04-09T13:30:02.963Z,13.15
2023-04-09T13:32:48.459Z,9.15
2023-04-09T13:35:34.165Z,8.68
2023-04-09T13:38:19.772Z,7.53
2023-04-09T13:41:06.182Z,7.47
2023-04-09T13:43:51.868Z,9.32
2023-04-09T13:46:37.477Z,10.63
2023-04-09T13:49:23.730Z,10.40
2023-04-09T13:52:10.712Z,6.25
2023-04-09T13:54:56.707Z,7.95
2023-04-09T13:57:42.556Z,9.38
2023-04-09T14:00:27.827Z,8.52
2023-04-09T14:03:14.419Z,9.68
2023-04-09T14:05:59.867Z,11.55
2023-04-09T14:08:45.452Z,9.70
2023-04-09T14:11:31.564Z,11.18
2023-04-09T14:14:18.082Z,12.05
2023-04-09T14:17:03.994Z,14.40
2023-04-09T14:19:50.431Z,11.05
2023-04-09T14:22:36.392Z,19.67
2023-04-09T14:25:22.288Z,10.82
2023-04-09T14:28:08.069Z,13.68
2023-04-09T14:30:53.402Z,16.90
2023-04-09T14:33:39.157Z,11.15
2023-04-09T14:36:27.653Z,10.52
2023-04-09T14:39:15.057Z,12.45
2023-04-09T14:42:02.315Z,8.90
2023-04-09T14:44:48.325Z,9.55
2023-04-09T14:47:33.954Z,20.65
2023-04-09T14:50:19.790Z,36.13
2023-04-09T14:53:05.460Z,14.02
2023-04-09T14:55:51.122Z,31.15
2023-04-09T14:58:36.781Z,22.15
2023-04-09T15:01:22.966Z,17.90
2023-04-09T15:04:08.766Z,11.55
2023-04-09T15:06:55.032Z,10.18
2023-04-09T15:09:41.060Z,12.02
2023-04-09T15:12:33.820Z,13.50
2023-04-09T15:15:22.295Z,15.02
2023-04-09T15:18:08.185Z,17.42
2023-04-09T15:20:53.802Z,18.60
2023-04-09T15:23:39.243Z,30.45
2023-04-09T15:26:27.964Z,14.68
2023-04-09T15:29:13.715Z,17.52
2023-04-09T15:31:59.533Z,9.65
2023-04-09T15:34:45.060Z,11.98
2023-04-09T15:37:30.718Z,10.35
2023-04-09T15:40:16.434Z,13.23
2023-04-09T15:43:02.132Z,10.07
2023-04-09T15:45:51.554Z,12.02
2023-04-09T15:48:37.793Z,12.57
2023-04-09T15:51:23.116Z,12.75
2023-04-09T15:54:08.716Z,9.15
2023-04-09T15:56:54.092Z,12.32
2023-04-09T15:59:39.853Z,11.75
2023-04-09T16:02:33.922Z,10.55
2023-04-09T16:05:41.057Z,9.77
2023-04-09T16:08:28.080Z,11.30
2023-04-09T16:11:13.563Z,11.43
2023-04-09T16:14:01.599Z,11.70
2023-04-09T16:16:52.255Z,13.88
2023-04-09T16:19:37.978Z,10.70
2023-04-09T16:22:30.208Z,9.10
2023-04-09T16:25:21.363Z,11.13
2023-04-09T16:28:10.048Z,8.95
2023-04-09T16:30:56.064Z,8.95
2023-04-09T16:33:41.580Z,12.27
2023-04-09T16:36:28.118Z,13.48
2023-04-09T16:39:15.603Z,14.35
2023-04-09T16:42:01.845Z,15.20
2023-04-09T16:44:47.289Z,11.88
2023-04-09T16:47:33.396Z,9.52
2023-04-09T16:50:20.669Z,9.82
2023-04-09T16:53:06.586Z,9.93
2023-04-09T16:55:52.032Z,11.43
2023-04-09T16:58:37.851Z,8.20
2023-04-09T17:01:23.586Z,9.23
2023-04-09T17:04:09.669Z,9.77
2023-04-09T17:06:55.258Z,12.95
2023-04-09T17:09:41.711Z,18.67
2023-04-09T17:12:28.478Z,12.30
2023-04-09T17:15:15.808Z,9.80
2023-04-09T17:18:02.407Z,8.52
2023-04-09T17:20:49.605Z,8.80
2023-04-09T17:23:35.191Z,12.18
2023-04-09T17:26:20.892Z,18.30
2023-04-09T17:29:07.269Z,12.85
2023-04-09T17:31:53.296Z,10.95
2023-04-09T17:34:38.757Z,8.43
2023-04-09T17:37:24.369Z,10.85
2023-04-09T17:40:12.368Z,8.73
2023-04-09T17:42:58.048Z,8.05
2023-04-09T17:45:43.450Z,18.83
2023-04-09T17:48:31.465Z,15.82
2023-04-09T17:51:19.691Z,8.52
2023-04-09T17:54:05.473Z,8.95
2023-04-09T17:56:52.125Z,8.48
2023-04-09T17:59:38.434Z,8.63
2023-04-09T18:02:23.993Z,7.38
2023-04-09T18:05:10.216Z,7.03
2023-04-09T18:07:56.723Z,7.57
2023-04-09T18:10:42.578Z,10.82
2023-04-09T18:13:28.747Z,7.80
2023-04-09T18:16:14.412Z,8.63
2023-04-09T18:18:59.986Z,7.18
2023-04-09T18:21:45.626Z,11.88
2023-04-09T18:24:32.781Z,11.93
2023-04-09T18:27:18.263Z,9.63
2023-04-09T18:30:04.742Z,8.65
2023-04-09T18:32:51.751Z,8.52
2023-04-09T18:35:38.259Z,8.77
2023-04-09T18:38:24.392Z,10.27
2023-04-09T18:41:12.458Z,9.63
2023-04-09T18:43:57.941Z,8.60
2023-04-09T18:46:44.040Z,9.85
2023-04-09T18:49:31.577Z,10.25
2023-04-09T18:52:17.185Z,8.18
2023-04-09T18:55:02.883Z,8.98
2023-04-09T18:57:48.844Z,13.60
2023-04-09T19:00:35.795Z,11.73
2023-04-09T19:03:22.131Z,8.73
2023-04-09T19:06:19.456Z,17.70
2023-04-09T19:09:05.862Z,9.90
2023-04-09T19:11:51.684Z,10.60
2023-04-09T19:14:37.529Z,9.82
2023-04-09T19:17:23.345Z,10.70
2023-04-09T19:20:09.070Z,10.15
2023-04-09T19:22:55.581Z,11.65
2023-04-09T19:25:41.227Z,11.20
2023-04-09T19:28:27.510Z,10.52
2023-04-09T19:31:14.661Z,11.48
2023-04-09T19:34:00.678Z,10.00
2023-04-09T19:36:46.835Z,11.02
2023-04-09T19:39:32.595Z,9.55
2023-04-09T19:42:19.300Z,10.05
2023-04-09T19:45:05.825Z,9.13
2023-04-09T19:47:52.518Z,11.75
2023-04-09T19:50:43.892Z,11.85
2023-04-09T19:53:30.950Z,12.13
2023-04-09T19:56:17.014Z,12.38
2023-04-09T19:59:04.016Z,8.00
2023-04-09T20:01:49.359Z,9.73
2023-04-09T20:04:35.418Z,6.90
2023-04-09T20:07:20.870Z,8.43
2023-04-09T20:10:07.572Z,7.90
2023-04-09T20:12:54.013Z,7.72
2023-04-09T20:15:39.690Z,7.80
2023-04-09T20:18:25.283Z,6.80
2023-04-09T20:21:14.332Z,8.77
2023-04-09T20:24:00.635Z,7.20
2023-04-09T20:26:47.738Z,7.47
2023-04-09T20:29:33.945Z,6.72
2023-04-09T20:32:19.952Z,7.05
2023-04-09T20:35:08.316Z,35.65
2023-04-09T20:37:55.123Z,7.45
2023-04-09T20:40:40.674Z,4.85
2023-04-09T20:43:26.371Z,3.45
2023-04-09T20:46:12.452Z,4.25
2023-04-09T20:48:58.349Z,3.83
2023-04-09T20:51:44.645Z,2.58
2023-04-09T20:54:30.877Z,3.58
2023-04-09T20:57:16.438Z,2.60
2023-04-09T21:00:02.133Z,2.33
2023-04-09T21:02:47.830Z,2.92
2023-04-09T21:05:33.464Z,3.20
2023-04-09T21:08:18.861Z,2.38
2023-04-09T21:11:04.601Z,1.90
2023-04-09T21:13:54.448Z,3.20
2023-04-09T21:16:40.999Z,8.50
2023-04-09T21:19:26.536Z,10.48
2023-04-09T21:22:12.125Z,10.30
2023-04-09T21:24:57.557Z,4.25
2023-04-09T21:27:42.847Z,4.63
2023-04-09T21:30:29.192Z,2.65
2023-04-09T21:33:14.496Z,2.40
2023-04-09T21:36:00.140Z,6.20
2023-04-09T21:38:45.737Z,9.95
2023-04-09T21:41:31.409Z,7.50
2023-04-09T21:44:17.193Z,8.65
2023-04-09T21:47:07.525Z,8.02
2023-04-09T21:49:54.098Z,5.05
2023-04-09T21:52:39.930Z,11.55
2023-04-09T21:55:25.353Z,5.70
2023-04-09T21:58:12.002Z,2.72
2023-04-09T22:00:57.482Z,2.00
2023-04-09T22:03:44.873Z,1.67
2023-04-09T22:06:31.053Z,2.83
2023-04-09T22:09:16.926Z,1.90
2023-04-09T22:12:03.048Z,2.00
2023-04-09T22:14:49.129Z,1.77
2023-04-09T22:17:34.591Z,2.65
2023-04-09T22:20:20.133Z,5.43
2023-04-09T22:23:05.451Z,2.95
2023-04-09T22:25:50.940Z,3.15
2023-04-09T22:28:36.362Z,2.30
2023-04-09T22:31:22.031Z,3.42
2023-04-09T22:34:20.076Z,4.57
2023-04-09T22:37:06.968Z,2.92
2023-04-09T22:39:52.319Z,2.17
2023-04-09T22:42:37.744Z,3.17
2023-04-09T22:45:23.017Z,2.72
2023-04-09T22:48:08.873Z,4.07
2023-04-09T22:50:54.638Z,2.50
2023-04-09T22:53:43.048Z,3.95
2023-04-09T22:56:28.817Z,4.07
2023-04-09T22:59:15.598Z,2.83
2023-04-09T23:02:01.327Z,2.90
2023-04-09T23:04:48.216Z,2.65
2023-04-09T23:07:34.019Z,4.70
2023-04-09T23:10:19.791Z,3.60
2023-04-09T23:13:05.313Z,2.75
2023-04-09T23:15:51.046Z,3.85
2023-04-09T23:18:37.162Z,2.40
2023-04-09T23:21:22.578Z,2.53
2023-04-09T23:24:07.963Z,2.60
2023-04-09T23:26:53.589Z,3.53
2023-04-09T23:29:38.887Z,3.92
2023-04-09T23:32:24.905Z,3.00
2023-04-09T23:35:11.465Z,3.60
2023-04-09T23:37:56.997Z,4.15
2023-04-09T23:40:43.077Z,3.10
2023-04-09T23:43:28.786Z,5.13
2023-04-09T23:46:14.475Z,2.60
2023-04-09T23:49:00.378Z,2.78
2023-04-09T23:51:46.251Z,5.57
2023-04-09T23:54:32.710Z,4.88
2023-04-09T23:57:18.287Z,9.07
